sensor_id;sensor_type;location;lat;lon;timestamp;P1;durP1;ratioP1;P2;durP2;ratioP2
55364;SDS011;41245;45.384;20.390;2023-04-06T00:00:53;27.50;;;14.00;;
55364;SDS011;41245;45.384;20.390;2023-04-06T00:03:19;28.05;;;14.45;;
55364;SDS011;41245;45.384;20.390;2023-04-06T00:05:46;22.13;;;14.63;;
55364;SDS011;41245;45.384;20.390;2023-04-06T00:08:12;22.80;;;12.75;;
55364;SDS011;41245;45.384;20.390;2023-04-06T00:10:39;25.73;;;14.63;;
55364;SDS011;41245;45.384;20.390;2023-04-06T00:13:05;25.85;;;15.02;;
55364;SDS011;41245;45.384;20.390;2023-04-06T00:15:32;26.38;;;15.95;;
55364;SDS011;41245;45.384;20.390;2023-04-06T00:17:58;24.48;;;14.20;;
55364;SDS011;41245;45.384;20.390;2023-04-06T00:20:24;27.92;;;16.00;;
55364;SDS011;41245;45.384;20.390;2023-04-06T00:22:50;23.77;;;14.45;;
55364;SDS011;41245;45.384;20.390;2023-04-06T00:25:16;20.80;;;14.13;;
55364;SDS011;41245;45.384;20.390;2023-04-06T00:27:42;26.38;;;14.82;;
55364;SDS011;41245;45.384;20.390;2023-04-06T00:30:08;25.60;;;15.35;;
55364;SDS011;41245;45.384;20.390;2023-04-06T00:32:35;28.00;;;15.13;;
55364;SDS011;41245;45.384;20.390;2023-04-06T00:35:04;23.35;;;14.88;;
55364;SDS011;41245;45.384;20.390;2023-04-06T00:37:30;26.73;;;14.82;;
55364;SDS011;41245;45.384;20.390;2023-04-06T00:39:56;25.08;;;13.77;;
55364;SDS011;41245;45.384;20.390;2023-04-06T00:42:23;28.15;;;15.23;;
55364;SDS011;41245;45.384;20.390;2023-04-06T00:44:55;26.67;;;16.02;;
55364;SDS011;41245;45.384;20.390;2023-04-06T00:49:48;21.35;;;13.80;;
55364;SDS011;41245;45.384;20.390;2023-04-06T00:52:15;22.13;;;14.98;;
55364;SDS011;41245;45.384;20.390;2023-04-06T00:54:41;26.65;;;16.38;;
55364;SDS011;41245;45.384;20.390;2023-04-06T00:57:07;23.10;;;15.38;;
55364;SDS011;41245;45.384;20.390;2023-04-06T00:59:33;29.40;;;15.82;;
55364;SDS011;41245;45.384;20.390;2023-04-06T01:01:59;27.83;;;16.40;;
55364;SDS011;41245;45.384;20.390;2023-04-06T01:04:26;24.63;;;14.65;;
55364;SDS011;41245;45.384;20.390;2023-04-06T01:06:52;32.83;;;15.00;;
55364;SDS011;41245;45.384;20.390;2023-04-06T01:09:18;28.02;;;15.13;;
55364;SDS011;41245;45.384;20.390;2023-04-06T01:11:44;27.52;;;16.02;;
55364;SDS011;41245;45.384;20.390;2023-04-06T01:14:10;24.80;;;15.70;;
55364;SDS011;41245;45.384;20.390;2023-04-06T01:16:36;24.48;;;13.57;;
55364;SDS011;41245;45.384;20.390;2023-04-06T01:19:09;24.30;;;15.40;;
55364;SDS011;41245;45.384;20.390;2023-04-06T01:21:36;26.98;;;14.65;;
55364;SDS011;41245;45.384;20.390;2023-04-06T01:24:02;27.90;;;15.30;;
55364;SDS011;41245;45.384;20.390;2023-04-06T01:26:28;32.03;;;15.35;;
55364;SDS011;41245;45.384;20.390;2023-04-06T01:28:54;30.33;;;15.75;;
55364;SDS011;41245;45.384;20.390;2023-04-06T01:31:21;30.02;;;16.98;;
55364;SDS011;41245;45.384;20.390;2023-04-06T01:33:47;28.15;;;16.83;;
55364;SDS011;41245;45.384;20.390;2023-04-06T01:36:13;31.15;;;18.35;;
55364;SDS011;41245;45.384;20.390;2023-04-06T01:38:40;33.25;;;17.85;;
55364;SDS011;41245;45.384;20.390;2023-04-06T01:41:06;36.08;;;17.10;;
55364;SDS011;41245;45.384;20.390;2023-04-06T01:43:32;31.50;;;15.90;;
55364;SDS011;41245;45.384;20.390;2023-04-06T01:45:58;29.67;;;17.67;;
55364;SDS011;41245;45.384;20.390;2023-04-06T01:48:25;29.58;;;18.10;;
55364;SDS011;41245;45.384;20.390;2023-04-06T01:50:51;30.52;;;19.30;;
55364;SDS011;41245;45.384;20.390;2023-04-06T01:53:17;30.70;;;18.27;;
55364;SDS011;41245;45.384;20.390;2023-04-06T01:55:43;26.75;;;16.40;;
55364;SDS011;41245;45.384;20.390;2023-04-06T01:58:10;30.80;;;17.48;;
55364;SDS011;41245;45.384;20.390;2023-04-06T02:00:36;34.45;;;17.85;;
55364;SDS011;41245;45.384;20.390;2023-04-06T02:03:02;29.52;;;17.27;;
55364;SDS011;41245;45.384;20.390;2023-04-06T02:05:29;32.88;;;18.60;;
55364;SDS011;41245;45.384;20.390;2023-04-06T02:07:55;25.55;;;16.27;;
55364;SDS011;41245;45.384;20.390;2023-04-06T02:10:21;33.22;;;18.73;;
55364;SDS011;41245;45.384;20.390;2023-04-06T02:12:47;35.15;;;19.83;;
55364;SDS011;41245;45.384;20.390;2023-04-06T02:15:14;30.10;;;17.77;;
55364;SDS011;41245;45.384;20.390;2023-04-06T02:17:40;40.50;;;20.30;;
55364;SDS011;41245;45.384;20.390;2023-04-06T02:20:06;28.58;;;17.63;;
55364;SDS011;41245;45.384;20.390;2023-04-06T02:22:32;33.97;;;16.13;;
55364;SDS011;41245;45.384;20.390;2023-04-06T02:24:58;27.98;;;16.45;;
55364;SDS011;41245;45.384;20.390;2023-04-06T02:27:25;31.17;;;16.13;;
55364;SDS011;41245;45.384;20.390;2023-04-06T02:29:51;29.23;;;15.57;;
55364;SDS011;41245;45.384;20.390;2023-04-06T02:32:17;27.55;;;17.13;;
55364;SDS011;41245;45.384;20.390;2023-04-06T02:34:43;29.17;;;17.90;;
55364;SDS011;41245;45.384;20.390;2023-04-06T02:37:09;28.85;;;14.98;;
55364;SDS011;41245;45.384;20.390;2023-04-06T02:39:35;25.80;;;15.15;;
55364;SDS011;41245;45.384;20.390;2023-04-06T02:42:01;27.85;;;16.15;;
55364;SDS011;41245;45.384;20.390;2023-04-06T02:44:27;28.95;;;15.30;;
55364;SDS011;41245;45.384;20.390;2023-04-06T02:46:53;25.52;;;14.05;;
55364;SDS011;41245;45.384;20.390;2023-04-06T02:49:19;28.33;;;16.00;;
55364;SDS011;41245;45.384;20.390;2023-04-06T02:51:45;26.25;;;15.13;;
55364;SDS011;41245;45.384;20.390;2023-04-06T02:54:11;26.85;;;15.20;;
55364;SDS011;41245;45.384;20.390;2023-04-06T02:56:38;24.15;;;14.50;;
55364;SDS011;41245;45.384;20.390;2023-04-06T02:59:04;29.15;;;15.35;;
55364;SDS011;41245;45.384;20.390;2023-04-06T03:01:30;29.33;;;15.43;;
55364;SDS011;41245;45.384;20.390;2023-04-06T03:03:56;32.50;;;16.20;;
55364;SDS011;41245;45.384;20.390;2023-04-06T03:06:22;30.05;;;14.07;;
55364;SDS011;41245;45.384;20.390;2023-04-06T03:08:49;20.88;;;12.65;;
55364;SDS011;41245;45.384;20.390;2023-04-06T03:11:15;25.13;;;13.93;;
55364;SDS011;41245;45.384;20.390;2023-04-06T03:13:41;22.17;;;12.15;;
55364;SDS011;41245;45.384;20.390;2023-04-06T03:16:07;23.60;;;12.48;;
55364;SDS011;41245;45.384;20.390;2023-04-06T03:18:33;23.65;;;13.25;;
55364;SDS011;41245;45.384;20.390;2023-04-06T03:20:59;22.92;;;13.02;;
55364;SDS011;41245;45.384;20.390;2023-04-06T03:23:25;28.63;;;14.25;;
55364;SDS011;41245;45.384;20.390;2023-04-06T03:25:51;57.40;;;27.85;;
55364;SDS011;41245;45.384;20.390;2023-04-06T03:28:18;28.98;;;15.93;;
55364;SDS011;41245;45.384;20.390;2023-04-06T03:30:44;26.60;;;13.68;;
55364;SDS011;41245;45.384;20.390;2023-04-06T03:33:10;26.75;;;14.32;;
55364;SDS011;41245;45.384;20.390;2023-04-06T03:35:36;35.90;;;16.33;;
55364;SDS011;41245;45.384;20.390;2023-04-06T03:38:03;24.33;;;13.90;;
55364;SDS011;41245;45.384;20.390;2023-04-06T03:40:30;20.92;;;12.02;;
55364;SDS011;41245;45.384;20.390;2023-04-06T03:42:56;20.40;;;12.35;;
55364;SDS011;41245;45.384;20.390;2023-04-06T03:45:22;26.00;;;12.32;;
55364;SDS011;41245;45.384;20.390;2023-04-06T03:47:48;20.05;;;11.85;;
55364;SDS011;41245;45.384;20.390;2023-04-06T03:50:14;25.92;;;12.70;;
55364;SDS011;41245;45.384;20.390;2023-04-06T03:52:40;21.95;;;11.95;;
55364;SDS011;41245;45.384;20.390;2023-04-06T03:55:07;19.95;;;12.05;;
55364;SDS011;41245;45.384;20.390;2023-04-06T03:57:33;22.38;;;12.13;;
55364;SDS011;41245;45.384;20.390;2023-04-06T03:59:58;28.88;;;11.98;;
55364;SDS011;41245;45.384;20.390;2023-04-06T04:02:24;21.70;;;11.63;;
55364;SDS011;41245;45.384;20.390;2023-04-06T04:04:50;24.08;;;11.35;;
55364;SDS011;41245;45.384;20.390;2023-04-06T04:07:16;18.40;;;10.88;;
55364;SDS011;41245;45.384;20.390;2023-04-06T04:09:42;24.10;;;10.93;;
55364;SDS011;41245;45.384;20.390;2023-04-06T04:12:08;19.20;;;11.73;;
55364;SDS011;41245;45.384;20.390;2023-04-06T04:14:34;19.58;;;11.38;;
55364;SDS011;41245;45.384;20.390;2023-04-06T04:17:00;24.75;;;13.00;;
55364;SDS011;41245;45.384;20.390;2023-04-06T04:19:26;22.88;;;10.65;;
55364;SDS011;41245;45.384;20.390;2023-04-06T04:21:52;23.60;;;12.02;;
55364;SDS011;41245;45.384;20.390;2023-04-06T04:24:18;25.30;;;12.70;;
55364;SDS011;41245;45.384;20.390;2023-04-06T04:26:44;22.25;;;11.55;;
55364;SDS011;41245;45.384;20.390;2023-04-06T04:29:10;28.42;;;12.10;;
55364;SDS011;41245;45.384;20.390;2023-04-06T04:31:36;24.70;;;12.88;;
55364;SDS011;41245;45.384;20.390;2023-04-06T04:34:02;33.63;;;14.25;;
55364;SDS011;41245;45.384;20.390;2023-04-06T04:36:29;28.65;;;12.07;;
55364;SDS011;41245;45.384;20.390;2023-04-06T04:38:55;26.10;;;12.48;;
55364;SDS011;41245;45.384;20.390;2023-04-06T04:41:21;36.00;;;14.27;;
55364;SDS011;41245;45.384;20.390;2023-04-06T04:43:47;26.25;;;12.70;;
55364;SDS011;41245;45.384;20.390;2023-04-06T04:46:13;31.70;;;15.27;;
55364;SDS011;41245;45.384;20.390;2023-04-06T04:48:39;33.95;;;15.50;;
55364;SDS011;41245;45.384;20.390;2023-04-06T04:51:05;28.35;;;14.77;;
55364;SDS011;41245;45.384;20.390;2023-04-06T04:53:31;32.60;;;15.55;;
55364;SDS011;41245;45.384;20.390;2023-04-06T04:55:57;31.02;;;13.98;;
55364;SDS011;41245;45.384;20.390;2023-04-06T04:58:23;30.45;;;15.02;;
55364;SDS011;41245;45.384;20.390;2023-04-06T05:00:49;31.17;;;13.52;;
55364;SDS011;41245;45.384;20.390;2023-04-06T05:03:20;28.15;;;15.05;;
55364;SDS011;41245;45.384;20.390;2023-04-06T05:05:47;34.90;;;14.45;;
55364;SDS011;41245;45.384;20.390;2023-04-06T05:08:13;28.13;;;13.48;;
55364;SDS011;41245;45.384;20.390;2023-04-06T05:10:39;25.33;;;13.57;;
55364;SDS011;41245;45.384;20.390;2023-04-06T05:13:05;22.02;;;12.07;;
55364;SDS011;41245;45.384;20.390;2023-04-06T05:15:31;24.23;;;12.90;;
55364;SDS011;41245;45.384;20.390;2023-04-06T05:17:59;28.70;;;13.23;;
55364;SDS011;41245;45.384;20.390;2023-04-06T05:20:26;29.95;;;13.02;;
55364;SDS011;41245;45.384;20.390;2023-04-06T05:22:52;30.42;;;12.43;;
55364;SDS011;41245;45.384;20.390;2023-04-06T05:25:18;22.77;;;11.60;;
55364;SDS011;41245;45.384;20.390;2023-04-06T05:27:44;23.45;;;13.02;;
55364;SDS011;41245;45.384;20.390;2023-04-06T05:30:10;22.55;;;11.73;;
55364;SDS011;41245;45.384;20.390;2023-04-06T05:32:36;23.33;;;13.23;;
55364;SDS011;41245;45.384;20.390;2023-04-06T05:35:02;19.58;;;10.45;;
55364;SDS011;41245;45.384;20.390;2023-04-06T05:37:28;20.27;;;10.30;;
55364;SDS011;41245;45.384;20.390;2023-04-06T05:39:55;24.02;;;11.38;;
55364;SDS011;41245;45.384;20.390;2023-04-06T05:42:21;21.75;;;11.40;;
55364;SDS011;41245;45.384;20.390;2023-04-06T05:44:47;22.55;;;12.15;;
55364;SDS011;41245;45.384;20.390;2023-04-06T05:47:14;26.73;;;12.63;;
55364;SDS011;41245;45.384;20.390;2023-04-06T05:49:41;23.40;;;10.50;;
55364;SDS011;41245;45.384;20.390;2023-04-06T05:52:08;28.33;;;11.43;;
55364;SDS011;41245;45.384;20.390;2023-04-06T05:54:35;24.25;;;11.30;;
55364;SDS011;41245;45.384;20.390;2023-04-06T05:57:04;21.77;;;10.02;;
55364;SDS011;41245;45.384;20.390;2023-04-06T05:59:30;17.20;;;9.90;;
55364;SDS011;41245;45.384;20.390;2023-04-06T06:01:56;20.33;;;11.00;;
55364;SDS011;41245;45.384;20.390;2023-04-06T06:04:22;19.98;;;11.07;;
55364;SDS011;41245;45.384;20.390;2023-04-06T06:06:48;13.75;;;8.82;;
55364;SDS011;41245;45.384;20.390;2023-04-06T06:09:14;18.15;;;10.18;;
55364;SDS011;41245;45.384;20.390;2023-04-06T06:11:40;21.25;;;9.93;;
55364;SDS011;41245;45.384;20.390;2023-04-06T06:14:07;17.17;;;9.38;;
55364;SDS011;41245;45.384;20.390;2023-04-06T06:16:33;19.55;;;10.02;;
55364;SDS011;41245;45.384;20.390;2023-04-06T06:18:59;16.23;;;8.75;;
55364;SDS011;41245;45.384;20.390;2023-04-06T06:21:25;18.27;;;8.35;;
55364;SDS011;41245;45.384;20.390;2023-04-06T06:23:51;16.33;;;8.27;;
55364;SDS011;41245;45.384;20.390;2023-04-06T06:26:19;12.23;;;7.50;;
55364;SDS011;41245;45.384;20.390;2023-04-06T06:28:45;16.08;;;8.45;;
55364;SDS011;41245;45.384;20.390;2023-04-06T06:31:11;13.88;;;7.68;;
55364;SDS011;41245;45.384;20.390;2023-04-06T06:33:37;16.33;;;8.60;;
55364;SDS011;41245;45.384;20.390;2023-04-06T06:36:03;19.20;;;8.57;;
55364;SDS011;41245;45.384;20.390;2023-04-06T06:38:29;16.75;;;8.73;;
55364;SDS011;41245;45.384;20.390;2023-04-06T06:40:55;13.90;;;5.85;;
55364;SDS011;41245;45.384;20.390;2023-04-06T06:43:21;13.30;;;7.28;;
55364;SDS011;41245;45.384;20.390;2023-04-06T06:45:47;13.55;;;7.50;;
55364;SDS011;41245;45.384;20.390;2023-04-06T06:48:13;18.27;;;7.70;;
55364;SDS011;41245;45.384;20.390;2023-04-06T06:50:39;14.70;;;7.65;;
55364;SDS011;41245;45.384;20.390;2023-04-06T06:53:05;11.10;;;7.03;;
55364;SDS011;41245;45.384;20.390;2023-04-06T06:55:31;15.63;;;8.70;;
55364;SDS011;41245;45.384;20.390;2023-04-06T06:57:57;14.48;;;6.88;;
55364;SDS011;41245;45.384;20.390;2023-04-06T07:00:23;16.67;;;8.05;;
55364;SDS011;41245;45.384;20.390;2023-04-06T07:02:49;15.75;;;8.27;;
55364;SDS011;41245;45.384;20.390;2023-04-06T07:05:15;10.73;;;6.55;;
55364;SDS011;41245;45.384;20.390;2023-04-06T07:07:42;18.80;;;9.18;;
55364;SDS011;41245;45.384;20.390;2023-04-06T07:10:08;16.67;;;6.50;;
55364;SDS011;41245;45.384;20.390;2023-04-06T07:12:34;12.70;;;5.75;;
55364;SDS011;41245;45.384;20.390;2023-04-06T07:15:00;12.85;;;6.35;;
55364;SDS011;41245;45.384;20.390;2023-04-06T07:17:26;11.55;;;6.00;;
55364;SDS011;41245;45.384;20.390;2023-04-06T07:19:52;11.05;;;6.78;;
55364;SDS011;41245;45.384;20.390;2023-04-06T07:22:18;12.63;;;6.25;;
55364;SDS011;41245;45.384;20.390;2023-04-06T07:24:44;13.98;;;6.30;;
55364;SDS011;41245;45.384;20.390;2023-04-06T07:27:10;17.50;;;7.25;;
55364;SDS011;41245;45.384;20.390;2023-04-06T07:29:36;12.90;;;5.78;;
55364;SDS011;41245;45.384;20.390;2023-04-06T07:32:02;13.07;;;6.43;;
55364;SDS011;41245;45.384;20.390;2023-04-06T07:34:28;17.23;;;7.70;;
55364;SDS011;41245;45.384;20.390;2023-04-06T07:36:54;12.40;;;6.05;;
55364;SDS011;41245;45.384;20.390;2023-04-06T07:39:21;15.45;;;6.80;;
55364;SDS011;41245;45.384;20.390;2023-04-06T07:41:47;15.20;;;8.45;;
55364;SDS011;41245;45.384;20.390;2023-04-06T07:44:13;15.30;;;7.20;;
55364;SDS011;41245;45.384;20.390;2023-04-06T07:46:40;12.10;;;6.60;;
55364;SDS011;41245;45.384;20.390;2023-04-06T07:49:06;18.05;;;7.57;;
55364;SDS011;41245;45.384;20.390;2023-04-06T07:51:32;11.95;;;6.70;;
55364;SDS011;41245;45.384;20.390;2023-04-06T07:53:57;14.13;;;6.30;;
55364;SDS011;41245;45.384;20.390;2023-04-06T07:56:24;13.77;;;6.15;;
55364;SDS011;41245;45.384;20.390;2023-04-06T07:58:50;14.35;;;7.45;;
55364;SDS011;41245;45.384;20.390;2023-04-06T08:01:17;12.43;;;6.82;;
55364;SDS011;41245;45.384;20.390;2023-04-06T08:03:43;11.50;;;6.72;;
55364;SDS011;41245;45.384;20.390;2023-04-06T08:06:09;11.85;;;5.20;;
55364;SDS011;41245;45.384;20.390;2023-04-06T08:08:35;15.02;;;7.13;;
55364;SDS011;41245;45.384;20.390;2023-04-06T08:11:01;15.55;;;7.57;;
55364;SDS011;41245;45.384;20.390;2023-04-06T08:13:27;12.68;;;6.55;;
55364;SDS011;41245;45.384;20.390;2023-04-06T08:15:53;13.63;;;7.13;;
55364;SDS011;41245;45.384;20.390;2023-04-06T08:18:20;13.15;;;6.90;;
55364;SDS011;41245;45.384;20.390;2023-04-06T08:20:46;18.75;;;7.53;;
55364;SDS011;41245;45.384;20.390;2023-04-06T08:23:13;29.35;;;10.77;;
55364;SDS011;41245;45.384;20.390;2023-04-06T08:25:40;23.35;;;11.02;;
55364;SDS011;41245;45.384;20.390;2023-04-06T08:28:06;16.08;;;9.27;;
55364;SDS011;41245;45.384;20.390;2023-04-06T08:30:34;17.05;;;9.50;;
55364;SDS011;41245;45.384;20.390;2023-04-06T08:33:00;13.43;;;7.45;;
55364;SDS011;41245;45.384;20.390;2023-04-06T08:35:26;10.32;;;6.25;;
55364;SDS011;41245;45.384;20.390;2023-04-06T08:37:53;7.82;;;5.82;;
55364;SDS011;41245;45.384;20.390;2023-04-06T08:40:19;10.75;;;5.60;;
55364;SDS011;41245;45.384;20.390;2023-04-06T08:42:49;10.35;;;6.57;;
55364;SDS011;41245;45.384;20.390;2023-04-06T08:45:19;16.83;;;7.38;;
55364;SDS011;41245;45.384;20.390;2023-04-06T08:47:46;10.15;;;6.22;;
55364;SDS011;41245;45.384;20.390;2023-04-06T08:50:19;13.35;;;7.15;;
55364;SDS011;41245;45.384;20.390;2023-04-06T08:52:49;13.23;;;6.57;;
55364;SDS011;41245;45.384;20.390;2023-04-06T08:55:15;13.23;;;6.47;;
55364;SDS011;41245;45.384;20.390;2023-04-06T08:57:41;13.65;;;7.03;;
55364;SDS011;41245;45.384;20.390;2023-04-06T09:00:09;11.55;;;6.15;;
55364;SDS011;41245;45.384;20.390;2023-04-06T09:02:39;13.65;;;7.45;;
55364;SDS011;41245;45.384;20.390;2023-04-06T09:05:07;9.43;;;5.90;;
55364;SDS011;41245;45.384;20.390;2023-04-06T09:07:35;9.68;;;5.80;;
55364;SDS011;41245;45.384;20.390;2023-04-06T09:10:01;9.70;;;6.05;;
55364;SDS011;41245;45.384;20.390;2023-04-06T09:12:27;12.80;;;6.80;;
55364;SDS011;41245;45.384;20.390;2023-04-06T09:14:55;9.93;;;5.95;;
55364;SDS011;41245;45.384;20.390;2023-04-06T09:19:48;13.70;;;9.00;;
55364;SDS011;41245;45.384;20.390;2023-04-06T09:22:14;12.57;;;7.30;;
55364;SDS011;41245;45.384;20.390;2023-04-06T09:25:01;15.30;;;9.13;;
55364;SDS011;41245;45.384;20.390;2023-04-06T09:27:37;13.65;;;7.47;;
55364;SDS011;41245;45.384;20.390;2023-04-06T09:30:04;14.13;;;7.15;;
55364;SDS011;41245;45.384;20.390;2023-04-06T09:35:30;10.82;;;7.53;;
55364;SDS011;41245;45.384;20.390;2023-04-06T09:37:57;17.27;;;8.35;;
55364;SDS011;41245;45.384;20.390;2023-04-06T09:40:23;13.45;;;8.30;;
55364;SDS011;41245;45.384;20.390;2023-04-06T09:42:49;10.88;;;7.22;;
55364;SDS011;41245;45.384;20.390;2023-04-06T09:45:17;14.25;;;8.25;;
55364;SDS011;41245;45.384;20.390;2023-04-06T09:47:43;17.10;;;10.07;;
55364;SDS011;41245;45.384;20.390;2023-04-06T09:50:11;18.33;;;10.38;;
55364;SDS011;41245;45.384;20.390;2023-04-06T09:52:40;14.88;;;8.85;;
55364;SDS011;41245;45.384;20.390;2023-04-06T09:55:35;15.77;;;8.02;;
55364;SDS011;41245;45.384;20.390;2023-04-06T09:58:09;10.90;;;6.45;;
55364;SDS011;41245;45.384;20.390;2023-04-06T10:00:56;14.45;;;6.95;;
55364;SDS011;41245;45.384;20.390;2023-04-06T10:06:04;12.15;;;6.88;;
55364;SDS011;41245;45.384;20.390;2023-04-06T10:08:34;13.80;;;8.27;;
55364;SDS011;41245;45.384;20.390;2023-04-06T10:11:05;13.38;;;5.32;;
55364;SDS011;41245;45.384;20.390;2023-04-06T10:13:31;11.15;;;7.22;;
55364;SDS011;41245;45.384;20.390;2023-04-06T10:15:57;12.38;;;6.90;;
55364;SDS011;41245;45.384;20.390;2023-04-06T10:18:25;14.93;;;7.95;;
55364;SDS011;41245;45.384;20.390;2023-04-06T10:20:56;12.23;;;8.73;;
55364;SDS011;41245;45.384;20.390;2023-04-06T10:23:29;12.23;;;7.50;;
55364;SDS011;41245;45.384;20.390;2023-04-06T10:28:23;13.60;;;6.20;;
55364;SDS011;41245;45.384;20.390;2023-04-06T10:30:49;13.00;;;7.07;;
55364;SDS011;41245;45.384;20.390;2023-04-06T10:33:22;11.00;;;7.72;;
55364;SDS011;41245;45.384;20.390;2023-04-06T10:35:48;11.07;;;7.05;;
55364;SDS011;41245;45.384;20.390;2023-04-06T10:38:14;12.50;;;7.15;;
55364;SDS011;41245;45.384;20.390;2023-04-06T10:40:45;14.70;;;7.20;;
55364;SDS011;41245;45.384;20.390;2023-04-06T10:43:22;10.25;;;6.93;;
55364;SDS011;41245;45.384;20.390;2023-04-06T10:45:57;14.25;;;6.65;;
55364;SDS011;41245;45.384;20.390;2023-04-06T10:48:25;12.30;;;7.25;;
55364;SDS011;41245;45.384;20.390;2023-04-06T10:51:12;19.10;;;9.85;;
55364;SDS011;41245;45.384;20.390;2023-04-06T10:53:40;14.32;;;8.13;;
55364;SDS011;41245;45.384;20.390;2023-04-06T10:56:11;12.65;;;7.20;;
55364;SDS011;41245;45.384;20.390;2023-04-06T11:01:03;13.25;;;7.22;;
55364;SDS011;41245;45.384;20.390;2023-04-06T11:03:29;11.93;;;6.95;;
55364;SDS011;41245;45.384;20.390;2023-04-06T11:05:57;11.07;;;6.55;;
55364;SDS011;41245;45.384;20.390;2023-04-06T11:08:24;12.85;;;7.28;;
55364;SDS011;41245;45.384;20.390;2023-04-06T11:18:56;11.48;;;6.82;;
55364;SDS011;41245;45.384;20.390;2023-04-06T11:21:41;15.13;;;7.22;;
55364;SDS011;41245;45.384;20.390;2023-04-06T11:24:17;10.68;;;6.65;;
55364;SDS011;41245;45.384;20.390;2023-04-06T11:29:14;11.13;;;6.25;;
55364;SDS011;41245;45.384;20.390;2023-04-06T11:31:42;16.10;;;7.22;;
55364;SDS011;41245;45.384;20.390;2023-04-06T11:34:16;12.53;;;7.83;;
55364;SDS011;41245;45.384;20.390;2023-04-06T11:36:43;9.13;;;6.13;;
55364;SDS011;41245;45.384;20.390;2023-04-06T11:39:12;17.92;;;7.03;;
55364;SDS011;41245;45.384;20.390;2023-04-06T11:41:52;15.10;;;7.38;;
55364;SDS011;41245;45.384;20.390;2023-04-06T11:44:38;10.45;;;6.63;;
55364;SDS011;41245;45.384;20.390;2023-04-06T11:47:08;12.88;;;6.72;;
55364;SDS011;41245;45.384;20.390;2023-04-06T11:49:38;14.25;;;7.15;;
55364;SDS011;41245;45.384;20.390;2023-04-06T11:52:24;12.65;;;7.32;;
55364;SDS011;41245;45.384;20.390;2023-04-06T11:54:52;15.65;;;7.95;;
55364;SDS011;41245;45.384;20.390;2023-04-06T11:57:19;10.10;;;6.30;;
55364;SDS011;41245;45.384;20.390;2023-04-06T11:59:46;12.80;;;7.40;;
55364;SDS011;41245;45.384;20.390;2023-04-06T12:02:12;11.52;;;7.30;;
55364;SDS011;41245;45.384;20.390;2023-04-06T12:04:38;12.90;;;7.25;;
55364;SDS011;41245;45.384;20.390;2023-04-06T12:07:03;14.60;;;7.47;;
55364;SDS011;41245;45.384;20.390;2023-04-06T12:09:29;17.92;;;8.45;;
55364;SDS011;41245;45.384;20.390;2023-04-06T12:11:56;16.63;;;8.27;;
55364;SDS011;41245;45.384;20.390;2023-04-06T12:14:22;14.15;;;8.98;;
55364;SDS011;41245;45.384;20.390;2023-04-06T12:16:48;16.30;;;7.85;;
55364;SDS011;41245;45.384;20.390;2023-04-06T12:19:14;15.80;;;8.60;;
55364;SDS011;41245;45.384;20.390;2023-04-06T12:21:40;17.48;;;8.65;;
55364;SDS011;41245;45.384;20.390;2023-04-06T12:24:05;15.02;;;8.98;;
55364;SDS011;41245;45.384;20.390;2023-04-06T12:26:32;20.23;;;11.25;;
55364;SDS011;41245;45.384;20.390;2023-04-06T12:28:58;16.80;;;10.00;;
55364;SDS011;41245;45.384;20.390;2023-04-06T12:31:32;16.95;;;9.38;;
55364;SDS011;41245;45.384;20.390;2023-04-06T12:33:59;15.35;;;9.70;;
55364;SDS011;41245;45.384;20.390;2023-04-06T12:36:27;15.70;;;9.43;;
55364;SDS011;41245;45.384;20.390;2023-04-06T12:38:53;18.92;;;10.35;;
55364;SDS011;41245;45.384;20.390;2023-04-06T12:41:18;16.83;;;9.65;;
55364;SDS011;41245;45.384;20.390;2023-04-06T12:43:45;22.00;;;10.27;;
55364;SDS011;41245;45.384;20.390;2023-04-06T12:46:11;16.02;;;10.02;;
55364;SDS011;41245;45.384;20.390;2023-04-06T12:48:37;19.27;;;11.50;;
55364;SDS011;41245;45.384;20.390;2023-04-06T12:51:03;17.45;;;9.60;;
55364;SDS011;41245;45.384;20.390;2023-04-06T12:53:30;16.92;;;9.98;;
55364;SDS011;41245;45.384;20.390;2023-04-06T12:55:57;18.20;;;11.13;;
55364;SDS011;41245;45.384;20.390;2023-04-06T12:58:24;16.25;;;10.02;;
55364;SDS011;41245;45.384;20.390;2023-04-06T13:00:53;18.98;;;10.70;;
55364;SDS011;41245;45.384;20.390;2023-04-06T13:03:20;16.77;;;10.50;;
55364;SDS011;41245;45.384;20.390;2023-04-06T13:05:47;15.30;;;10.18;;
55364;SDS011;41245;45.384;20.390;2023-04-06T13:08:17;15.25;;;9.30;;
55364;SDS011;41245;45.384;20.390;2023-04-06T13:10:44;13.63;;;8.95;;
55364;SDS011;41245;45.384;20.390;2023-04-06T13:13:17;15.55;;;9.65;;
55364;SDS011;41245;45.384;20.390;2023-04-06T13:15:43;14.23;;;9.18;;
55364;SDS011;41245;45.384;20.390;2023-04-06T13:18:10;22.02;;;9.93;;
55364;SDS011;41245;45.384;20.390;2023-04-06T13:20:35;15.13;;;8.45;;
55364;SDS011;41245;45.384;20.390;2023-04-06T13:23:01;16.08;;;9.50;;
55364;SDS011;41245;45.384;20.390;2023-04-06T13:25:27;16.33;;;9.98;;
55364;SDS011;41245;45.384;20.390;2023-04-06T13:27:54;17.80;;;10.50;;
55364;SDS011;41245;45.384;20.390;2023-04-06T13:30:19;16.30;;;8.70;;
55364;SDS011;41245;45.384;20.390;2023-04-06T13:32:46;18.23;;;9.93;;
55364;SDS011;41245;45.384;20.390;2023-04-06T13:35:12;14.98;;;10.02;;
55364;SDS011;41245;45.384;20.390;2023-04-06T13:37:38;15.32;;;9.90;;
55364;SDS011;41245;45.384;20.390;2023-04-06T13:40:04;13.68;;;9.48;;
55364;SDS011;41245;45.384;20.390;2023-04-06T13:42:31;16.85;;;11.05;;
55364;SDS011;41245;45.384;20.390;2023-04-06T13:44:57;18.73;;;11.15;;
55364;SDS011;41245;45.384;20.390;2023-04-06T13:47:24;23.40;;;11.63;;
55364;SDS011;41245;45.384;20.390;2023-04-06T13:49:50;17.92;;;10.75;;
55364;SDS011;41245;45.384;20.390;2023-04-06T13:52:20;26.05;;;11.30;;
55364;SDS011;41245;45.384;20.390;2023-04-06T13:54:45;34.33;;;16.45;;
55364;SDS011;41245;45.384;20.390;2023-04-06T13:57:11;34.58;;;18.13;;
55364;SDS011;41245;45.384;20.390;2023-04-06T13:59:38;21.15;;;10.93;;
55364;SDS011;41245;45.384;20.390;2023-04-06T14:02:06;20.70;;;11.25;;
55364;SDS011;41245;45.384;20.390;2023-04-06T14:04:34;17.58;;;10.48;;
55364;SDS011;41245;45.384;20.390;2023-04-06T14:07:01;17.10;;;10.75;;
55364;SDS011;41245;45.384;20.390;2023-04-06T14:09:28;16.92;;;9.88;;
55364;SDS011;41245;45.384;20.390;2023-04-06T14:11:54;14.23;;;10.05;;
55364;SDS011;41245;45.384;20.390;2023-04-06T14:14:20;14.63;;;8.90;;
55364;SDS011;41245;45.384;20.390;2023-04-06T14:16:47;16.90;;;9.95;;
55364;SDS011;41245;45.384;20.390;2023-04-06T14:19:14;19.33;;;10.38;;
55364;SDS011;41245;45.384;20.390;2023-04-06T14:21:44;16.65;;;9.07;;
55364;SDS011;41245;45.384;20.390;2023-04-06T14:24:10;14.38;;;8.90;;
55364;SDS011;41245;45.384;20.390;2023-04-06T14:26:37;24.67;;;13.43;;
55364;SDS011;41245;45.384;20.390;2023-04-06T14:29:03;20.13;;;10.85;;
55364;SDS011;41245;45.384;20.390;2023-04-06T14:31:29;16.00;;;9.00;;
55364;SDS011;41245;45.384;20.390;2023-04-06T14:33:55;16.15;;;9.45;;
55364;SDS011;41245;45.384;20.390;2023-04-06T14:36:22;19.73;;;9.52;;
55364;SDS011;41245;45.384;20.390;2023-04-06T14:38:48;18.02;;;9.20;;
55364;SDS011;41245;45.384;20.390;2023-04-06T14:41:22;20.48;;;8.73;;